Time;durP1;ratioP1;P1;durP2;ratioP2;P2;SDS_P1;SDS_P2;PMS_P1;PMS_P2;Temp;Humidity;BMP_temperature;BMP_pressure;BME280_temperature;BME280_humidity;BME280_pressure;Samples;Min_cycle;Max_cycle;Signal;HPM_P1;HPM_P2
2023/08/18 00:00:06;;;;;;;0.57;0.50;;;17.00;99.90;;;;;;5069891;28;20040;-68
2023/08/18 00:02:31;;;;;;;0.45;0.38;;;17.00;99.90;;;;;;5081314;28;20456;-68
2023/08/18 00:04:57;;;;;;;0.50;0.40;;;17.00;99.90;;;;;;5069566;28;20045;-68
2023/08/18 00:07:23;;;;;;;0.50;0.50;;;17.00;99.90;;;;;;5083719;28;20053;-68
2023/08/18 00:09:48;;;;;;;1.67;0.73;;;17.00;99.90;;;;;;5045151;28;20436;-68
2023/08/18 00:12:14;;;;;;;0.43;0.43;;;17.00;99.90;;;;;;5044189;28;20086;-67
2023/08/18 00:14:40;;;;;;;0.90;0.50;;;17.00;99.90;;;;;;5082794;28;20117;-68
2023/08/18 00:17:05;;;;;;;1.45;0.47;;;17.00;99.90;;;;;;5069603;28;20099;-68
2023/08/18 00:19:31;;;;;;;1.75;0.80;;;17.00;99.90;;;;;;5035817;28;20054;-68
2023/08/18 00:21:57;;;;;;;1.08;0.40;;;17.00;99.90;;;;;;5068818;28;20051;-68
2023/08/18 00:24:24;;;;;;;0.55;0.50;;;17.00;99.90;;;;;;5047222;28;20049;-68
2023/08/18 00:26:50;;;;;;;1.52;0.88;;;17.00;99.90;;;;;;5068985;28;20539;-68
2023/08/18 00:29:15;;;;;;;2.30;0.60;;;17.00;99.90;;;;;;5067298;28;20052;-67
2023/08/18 00:31:41;;;;;;;6.30;0.52;;;17.00;99.90;;;;;;5049630;28;20076;-68
2023/08/18 00:34:07;;;;;;;0.75;0.52;;;17.00;99.90;;;;;;5071959;28;20052;-68
2023/08/18 00:36:33;;;;;;;1.27;0.40;;;17.00;99.90;;;;;;5053356;28;20136;-67
2023/08/18 00:38:59;;;;;;;1.00;0.38;;;17.00;99.90;;;;;;5067420;28;20084;-68
2023/08/18 00:41:25;;;;;;;1.50;0.75;;;17.10;99.90;;;;;;5067565;28;20090;-67
2023/08/18 00:43:50;;;;;;;2.58;0.70;;;17.00;99.90;;;;;;5068170;28;20097;-67
2023/08/18 00:46:18;;;;;;;1.77;0.52;;;17.00;99.90;;;;;;5067580;28;20059;-67
2023/08/18 00:48:44;;;;;;;0.68;0.65;;;17.00;99.90;;;;;;5068041;28;20047;-67
2023/08/18 00:51:11;;;;;;;1.58;0.73;;;17.00;99.90;;;;;;5068874;28;20044;-67
2023/08/18 00:53:40;;;;;;;7.00;0.85;;;17.00;99.90;;;;;;5067056;28;20100;-68
2023/08/18 00:56:07;;;;;;;2.50;0.80;;;17.10;99.90;;;;;;5068671;28;20052;-68
2023/08/18 00:58:34;;;;;;;3.60;0.85;;;17.00;99.90;;;;;;5049197;28;20049;-68
2023/08/18 01:01:02;;;;;;;3.78;0.80;;;17.00;99.90;;;;;;5054352;28;20052;-67
2023/08/18 01:03:28;;;;;;;1.13;0.80;;;17.10;99.90;;;;;;5067698;28;20044;-68
2023/08/18 01:05:53;;;;;;;2.38;0.70;;;17.00;99.90;;;;;;5067402;28;20182;-67
2023/08/18 01:08:19;;;;;;;1.38;0.70;;;17.00;99.90;;;;;;5068288;28;20130;-68
2023/08/18 01:11:03;;;;;;;2.97;0.80;;;17.10;99.90;;;;;;5052250;28;20037;-67
2023/08/18 01:13:55;;;;;;;0.70;0.70;;;17.00;99.90;;;;;;5068675;28;20377;-68
2023/08/18 01:16:28;;;;;;;1.08;0.50;;;17.00;99.90;;;;;;5066568;28;20389;-67
2023/08/18 01:18:54;;;;;;;0.80;0.80;;;17.00;99.90;;;;;;5067659;28;20041;-67
2023/08/18 01:21:22;;;;;;;1.95;0.80;;;17.00;99.90;;;;;;5049963;28;20041;-68
2023/08/18 01:23:48;;;;;;;2.63;0.80;;;17.10;99.90;;;;;;5048308;28;20048;-68
2023/08/18 01:26:13;;;;;;;1.77;0.85;;;17.00;99.90;;;;;;5067720;28;20565;-68
2023/08/18 01:28:41;;;;;;;4.15;0.90;;;17.10;99.90;;;;;;5066396;28;20090;-68
2023/08/18 01:31:24;;;;;;;0.77;0.75;;;17.10;99.90;;;;;;5049237;28;20563;-67
2023/08/18 01:33:57;;;;;;;1.85;0.80;;;17.00;99.90;;;;;;5066825;28;20052;-67
2023/08/18 01:36:27;;;;;;;2.38;0.80;;;17.10;99.90;;;;;;5066501;28;20089;-67
2023/08/18 01:38:55;;;;;;;1.40;0.90;;;17.00;99.90;;;;;;5049960;28;20044;-67
2023/08/18 01:41:23;;;;;;;2.78;1.35;;;17.10;99.90;;;;;;5066324;28;20044;-67
2023/08/18 01:43:50;;;;;;;3.30;1.10;;;17.10;99.90;;;;;;5067840;28;20036;-67
2023/08/18 01:46:15;;;;;;;2.33;1.15;;;17.10;99.90;;;;;;5048433;28;20493;-67
2023/08/18 01:48:41;;;;;;;2.40;0.90;;;17.00;99.90;;;;;;5062078;28;20097;-67
2023/08/18 01:51:07;;;;;;;1.25;0.95;;;17.00;99.90;;;;;;5066319;28;20085;-67
2023/08/18 01:53:33;;;;;;;2.63;1.10;;;17.00;99.90;;;;;;5067743;28;20078;-66
2023/08/18 01:56:02;;;;;;;4.32;1.50;;;17.00;99.90;;;;;;5072306;28;20513;-66
2023/08/18 01:58:29;;;;;;;4.80;1.20;;;17.00;99.90;;;;;;5062242;28;20044;-67
2023/08/18 02:00:55;;;;;;;2.55;0.88;;;17.00;99.90;;;;;;5067121;28;20059;-67
2023/08/18 02:03:22;;;;;;;0.73;0.73;;;17.00;99.90;;;;;;5048210;28;20390;-67
2023/08/18 02:05:48;;;;;;;1.10;0.80;;;17.00;99.90;;;;;;5067310;28;20033;-68
2023/08/18 02:08:13;;;;;;;8.48;1.15;;;17.00;99.90;;;;;;5065863;28;20482;-67
2023/08/18 02:10:39;;;;;;;2.35;1.20;;;17.00;99.90;;;;;;5053418;28;20064;-68
2023/08/18 02:13:05;;;;;;;3.70;1.20;;;17.10;99.90;;;;;;5065323;28;20048;-67
2023/08/18 02:15:31;;;;;;;4.10;1.17;;;17.10;99.90;;;;;;5080129;28;20497;-67
2023/08/18 02:17:57;;;;;;;4.72;1.20;;;17.00;99.90;;;;;;5082697;28;20123;-67
2023/08/18 02:20:23;;;;;;;1.45;0.95;;;17.10;99.90;;;;;;5081515;28;20055;-67
2023/08/18 02:22:49;;;;;;;5.60;1.40;;;17.00;99.90;;;;;;5067782;28;20079;-68
2023/08/18 02:25:15;;;;;;;1.48;1.15;;;17.00;99.90;;;;;;5065364;28;20604;-68
2023/08/18 02:27:41;;;;;;;4.65;2.50;;;17.10;99.90;;;;;;5066837;28;20063;-68
2023/08/18 02:30:07;;;;;;;1.83;1.00;;;17.10;99.90;;;;;;5081816;28;20053;-67
2023/08/18 02:32:33;;;;;;;1.85;1.13;;;17.10;99.90;;;;;;5048564;28;20102;-68
2023/08/18 02:34:58;;;;;;;1.95;1.08;;;17.10;99.90;;;;;;5048719;28;20044;-68
2023/08/18 02:37:24;;;;;;;1.58;1.05;;;17.00;99.90;;;;;;5065156;28;20044;-68
2023/08/18 02:39:50;;;;;;;1.35;1.20;;;17.10;99.90;;;;;;5052259;28;20084;-68
2023/08/18 02:42:15;;;;;;;2.45;1.05;;;17.00;99.90;;;;;;5063801;28;20048;-68
2023/08/18 02:44:41;;;;;;;3.10;1.08;;;17.00;99.90;;;;;;5067582;28;20044;-68
2023/08/18 02:47:09;;;;;;;5.30;1.30;;;17.10;99.90;;;;;;5063965;28;20123;-68
2023/08/18 02:49:35;;;;;;;1.15;1.00;;;17.10;99.90;;;;;;5049752;28;20503;-68
2023/08/18 02:52:01;;;;;;;4.32;1.30;;;17.00;99.90;;;;;;5066317;28;20102;-68
2023/08/18 02:54:27;;;;;;;1.98;1.05;;;17.10;99.90;;;;;;5064605;28;20509;-68
2023/08/18 02:56:52;;;;;;;3.13;1.17;;;17.10;99.90;;;;;;5049358;28;20044;-67
2023/08/18 02:59:19;;;;;;;2.38;1.17;;;17.00;99.90;;;;;;5065041;28;20049;-67
2023/08/18 03:01:44;;;;;;;1.83;1.13;;;17.00;99.90;;;;;;5049081;28;20083;-68
2023/08/18 03:04:10;;;;;;;2.70;1.20;;;17.00;99.90;;;;;;5065221;28;20080;-68
2023/08/18 03:06:36;;;;;;;2.10;1.25;;;17.00;99.90;;;;;;5069037;28;20036;-68
2023/08/18 03:09:02;;;;;;;2.33;1.17;;;17.10;99.90;;;;;;5068233;28;20520;-68
2023/08/18 03:11:28;;;;;;;1.63;0.98;;;17.00;99.90;;;;;;5057555;28;20049;-68
2023/08/18 03:13:53;;;;;;;0.80;0.80;;;17.00;99.90;;;;;;5052882;28;20041;-67
2023/08/18 03:16:20;;;;;;;2.83;1.63;;;17.00;99.90;;;;;;5069068;28;20047;-68
2023/08/18 03:18:46;;;;;;;1.92;0.88;;;17.00;99.90;;;;;;5070803;28;20138;-68
2023/08/18 03:21:12;;;;;;;3.80;1.58;;;17.00;99.90;;;;;;5063277;28;20139;-68
2023/08/18 03:23:37;;;;;;;2.15;1.02;;;17.00;99.90;;;;;;5052748;28;20044;-68
2023/08/18 03:26:05;;;;;;;2.85;0.93;;;17.10;99.90;;;;;;5067509;28;20135;-68
2023/08/18 03:28:32;;;;;;;1.48;1.08;;;17.00;99.90;;;;;;5052051;28;20060;-67
2023/08/18 03:31:02;;;;;;;4.05;1.42;;;17.00;99.90;;;;;;5066564;28;20063;-67
2023/08/18 03:33:28;;;;;;;0.98;0.88;;;17.10;99.90;;;;;;5055502;28;20486;-68
2023/08/18 03:35:54;;;;;;;2.00;1.15;;;17.10;99.90;;;;;;5070196;28;20546;-68
2023/08/18 03:38:24;;;;;;;4.50;1.33;;;17.00;99.90;;;;;;5050362;28;20484;-67
2023/08/18 03:40:56;;;;;;;1.95;1.33;;;17.00;99.90;;;;;;5057507;28;20052;-67
2023/08/18 03:43:21;;;;;;;3.63;1.10;;;17.00;99.90;;;;;;5070569;28;20517;-67
2023/08/18 03:45:47;;;;;;;4.05;1.27;;;17.10;99.90;;;;;;5069943;28;20040;-68
2023/08/18 03:48:13;;;;;;;2.75;1.23;;;17.00;99.90;;;;;;5063629;28;20081;-68
2023/08/18 03:50:39;;;;;;;2.83;1.10;;;17.00;99.90;;;;;;5081660;28;20134;-68
2023/08/18 03:53:05;;;;;;;3.35;1.10;;;17.00;99.90;;;;;;5078175;28;20563;-67
2023/08/18 03:55:31;;;;;;;0.95;0.95;;;17.00;99.90;;;;;;5050316;28;20048;-68
2023/08/18 03:57:57;;;;;;;1.33;1.02;;;17.00;99.90;;;;;;5070192;28;20077;-68
2023/08/18 04:00:22;;;;;;;1.15;0.93;;;17.00;99.90;;;;;;5067690;28;20092;-67
2023/08/18 04:02:48;;;;;;;3.15;1.23;;;17.10;99.90;;;;;;5051690;28;20055;-67
2023/08/18 04:05:15;;;;;;;2.22;0.95;;;17.10;99.90;;;;;;5051802;28;20079;-67
2023/08/18 04:07:40;;;;;;;2.42;1.10;;;17.10;99.90;;;;;;5051406;28;20044;-67
2023/08/18 04:10:07;;;;;;;6.95;1.17;;;17.00;99.90;;;;;;5059836;28;20502;-68
2023/08/18 04:12:34;;;;;;;3.58;1.38;;;17.00;99.90;;;;;;5064284;28;20051;-67
2023/08/18 04:15:00;;;;;;;2.15;1.15;;;17.00;99.90;;;;;;5052603;28;20048;-68
2023/08/18 04:17:26;;;;;;;2.08;1.00;;;17.10;99.90;;;;;;5067272;28;20093;-67
2023/08/18 04:19:52;;;;;;;2.70;1.00;;;17.00;99.90;;;;;;5069265;28;20040;-67
2023/08/18 04:22:17;;;;;;;4.95;1.20;;;17.00;99.90;;;;;;5049493;28;20045;-67
2023/08/18 04:24:43;;;;;;;3.35;1.48;;;17.00;99.90;;;;;;5067422;28;20488;-67
2023/08/18 04:27:09;;;;;;;4.32;1.23;;;17.00;99.90;;;;;;5067365;28;20044;-68
2023/08/18 04:29:35;;;;;;;2.05;1.15;;;17.10;99.90;;;;;;5049675;28;20106;-68
2023/08/18 04:32:01;;;;;;;1.75;1.08;;;17.00;99.90;;;;;;5066827;28;20084;-68
2023/08/18 04:34:27;;;;;;;1.83;1.40;;;17.10;99.90;;;;;;5049256;28;20112;-67
2023/08/18 04:36:52;;;;;;;2.65;1.33;;;17.10;99.90;;;;;;5038526;28;20497;-68
2023/08/18 04:39:18;;;;;;;2.10;1.33;;;17.00;99.90;;;;;;5056273;28;20075;-67
2023/08/18 04:41:44;;;;;;;3.42;1.25;;;17.10;99.90;;;;;;5066800;28;20649;-67
2023/08/18 04:44:09;;;;;;;1.48;1.27;;;17.10;99.90;;;;;;5051628;28;20399;-68
2023/08/18 04:46:35;;;;;;;1.42;1.20;;;17.10;99.90;;;;;;5054205;28;20044;-68
2023/08/18 04:49:01;;;;;;;3.65;1.40;;;17.00;99.90;;;;;;5035731;28;20044;-68
2023/08/18 04:51:27;;;;;;;2.30;1.20;;;17.00;99.90;;;;;;5059527;28;20052;-68
2023/08/18 04:53:53;;;;;;;3.88;1.33;;;17.10;99.90;;;;;;5065597;28;20048;-68
2023/08/18 04:56:19;;;;;;;3.50;1.40;;;17.00;99.90;;;;;;5050587;28;20044;-68
2023/08/18 04:58:44;;;;;;;3.28;1.45;;;17.00;99.90;;;;;;5037867;28;20048;-67
2023/08/18 05:01:10;;;;;;;2.22;1.10;;;17.10;99.90;;;;;;5053004;28;20056;-67
2023/08/18 05:03:36;;;;;;;2.63;1.65;;;17.10;99.90;;;;;;5057558;28;20164;-68
2023/08/18 05:06:10;;;;;;;4.55;1.50;;;17.10;99.90;;;;;;5034581;28;20155;-67
2023/08/18 05:08:37;;;;;;;2.85;1.25;;;17.10;99.90;;;;;;5033861;28;20052;-68
2023/08/18 05:11:05;;;;;;;7.20;1.23;;;17.10;99.90;;;;;;5053815;28;20486;-67
2023/08/18 05:13:31;;;;;;;3.25;1.38;;;17.10;99.90;;;;;;5049146;28;20529;-68
2023/08/18 05:16:01;;;;;;;2.03;1.42;;;17.10;99.90;;;;;;5068101;28;20048;-68
2023/08/18 05:18:29;;;;;;;5.15;1.58;;;17.20;99.90;;;;;;5032290;28;20183;-67
2023/08/18 05:20:58;;;;;;;2.95;1.88;;;17.10;99.90;;;;;;5068194;28;20087;-68
2023/08/18 05:23:25;;;;;;;6.90;1.75;;;17.20;99.90;;;;;;5067265;28;20049;-67
2023/08/18 05:25:54;;;;;;;2.65;1.60;;;17.10;99.90;;;;;;5067050;28;20048;-67
2023/08/18 05:28:28;;;;;;;5.28;1.67;;;17.10;99.90;;;;;;5036383;28;20044;-68
2023/08/18 05:30:53;;;;;;;1.48;1.38;;;17.10;99.90;;;;;;5065766;28;20053;-68
2023/08/18 05:33:19;;;;;;;5.22;1.58;;;17.10;99.90;;;;;;5067593;28;20032;-68
2023/08/18 05:35:47;;;;;;;4.10;1.60;;;17.10;99.90;;;;;;5081799;28;20051;-69
2023/08/18 05:38:12;;;;;;;3.63;1.92;;;17.20;99.90;;;;;;5068444;28;20032;-68
2023/08/18 05:40:45;;;;;;;4.15;1.80;;;17.20;99.90;;;;;;5049052;28;20040;-67
2023/08/18 05:43:12;;;;;;;4.15;1.65;;;17.20;99.90;;;;;;5066736;28;20394;-67
2023/08/18 05:45:38;;;;;;;2.35;1.60;;;17.20;99.90;;;;;;5044247;28;20490;-68
2023/08/18 05:48:05;;;;;;;2.70;1.58;;;17.30;99.90;;;;;;5048538;28;20048;-68
2023/08/18 05:50:31;;;;;;;2.55;1.63;;;17.30;99.90;;;;;;5049302;28;20036;-68
2023/08/18 05:52:58;;;;;;;3.65;2.10;;;17.30;99.90;;;;;;5048447;28;20083;-68
2023/08/18 05:55:24;;;;;;;4.38;2.03;;;17.20;99.90;;;;;;5066627;28;20040;-67
2023/08/18 05:57:50;;;;;;;5.38;2.00;;;17.30;99.90;;;;;;5066883;28;20425;-68
2023/08/18 06:00:16;;;;;;;6.22;2.03;;;17.30;99.90;;;;;;5048837;28;20527;-68
2023/08/18 06:02:42;;;;;;;6.85;2.38;;;17.20;99.90;;;;;;5067114;28;20294;-67
2023/08/18 06:05:11;;;;;;;5.15;2.17;;;17.20;99.90;;;;;;5065864;28;20040;-68
2023/08/18 06:07:41;;;;;;;5.00;2.00;;;17.30;99.90;;;;;;5067357;28;20055;-67
2023/08/18 06:10:08;;;;;;;3.63;1.88;;;17.30;99.90;;;;;;5055738;28;20071;-68
2023/08/18 06:12:33;;;;;;;4.25;1.90;;;17.30;99.90;;;;;;5063544;28;20045;-67
2023/08/18 06:15:00;;;;;;;4.32;1.77;;;17.30;99.90;;;;;;5048562;28;20090;-68
2023/08/18 06:17:25;;;;;;;4.15;2.08;;;17.30;99.90;;;;;;5066348;28;20090;-67
2023/08/18 06:19:52;;;;;;;4.22;2.08;;;17.40;99.90;;;;;;5067250;28;20256;-68
2023/08/18 06:22:18;;;;;;;5.45;2.55;;;17.40;99.90;;;;;;5066036;28;20494;-67
2023/08/18 06:24:44;;;;;;;6.57;2.15;;;17.50;99.90;;;;;;5067000;28;20094;-67
2023/08/18 06:27:10;;;;;;;3.92;2.22;;;17.50;99.90;;;;;;5079786;28;20147;-68
2023/08/18 06:29:38;;;;;;;3.33;2.10;;;17.50;99.90;;;;;;5067075;28;20052;-68
2023/08/18 06:32:04;;;;;;;4.82;2.80;;;17.50;99.90;;;;;;5065747;28;20106;-68
2023/08/18 06:34:30;;;;;;;9.07;2.88;;;17.50;99.90;;;;;;5048288;28;20098;-68
2023/08/18 06:36:55;;;;;;;11.43;3.05;;;17.50;99.90;;;;;;5055377;28;20053;-67
2023/08/18 06:39:21;;;;;;;4.32;2.63;;;17.60;99.90;;;;;;5053343;28;20545;-67
2023/08/18 06:41:47;;;;;;;5.28;2.72;;;17.60;99.90;;;;;;5049456;28;20283;-67
2023/08/18 06:44:13;;;;;;;4.13;2.30;;;17.70;99.90;;;;;;5070005;28;20036;-67
2023/08/18 06:46:39;;;;;;;9.68;2.20;;;17.60;99.90;;;;;;5062849;28;20037;-68
2023/08/18 06:49:05;;;;;;;3.75;2.10;;;17.70;99.90;;;;;;5069548;28;20452;-68
2023/08/18 06:51:30;;;;;;;7.75;2.33;;;17.70;99.90;;;;;;5052612;28;20049;-67
2023/08/18 06:53:56;;;;;;;2.28;2.03;;;17.80;99.90;;;;;;5070366;28;20095;-67
2023/08/18 06:56:22;;;;;;;6.05;2.60;;;17.80;99.90;;;;;;5070103;28;20048;-68
2023/08/18 06:58:48;;;;;;;7.03;2.40;;;17.80;99.90;;;;;;5071857;28;20371;-68
2023/08/18 07:01:13;;;;;;;5.88;2.53;;;17.70;99.90;;;;;;5067171;28;20406;-68
2023/08/18 07:03:39;;;;;;;5.28;2.85;;;17.80;99.90;;;;;;5062931;28;20072;-67
2023/08/18 07:06:05;;;;;;;3.20;2.25;;;17.80;99.90;;;;;;5063939;28;20425;-68
2023/08/18 07:08:32;;;;;;;4.30;2.13;;;17.80;99.90;;;;;;5068532;28;20037;-67
2023/08/18 07:10:58;;;;;;;3.88;2.28;;;17.80;99.90;;;;;;5037710;28;20049;-68
2023/08/18 07:13:24;;;;;;;4.75;2.70;;;17.80;99.90;;;;;;5036701;28;20478;-67
2023/08/18 07:15:49;;;;;;;3.50;2.20;;;17.80;99.90;;;;;;5054564;28;20080;-67
2023/08/18 07:18:17;;;;;;;3.67;2.40;;;17.80;99.90;;;;;;5047585;28;20033;-68
2023/08/18 07:20:45;;;;;;;5.05;2.47;;;17.80;99.90;;;;;;5059665;28;20037;-67
2023/08/18 07:23:11;;;;;;;4.40;2.15;;;17.80;99.90;;;;;;5054708;28;21097;-67
2023/08/18 07:25:39;;;;;;;8.23;4.00;;;17.80;99.90;;;;;;5053197;28;20044;-67
2023/08/18 07:28:05;;;;;;;5.00;2.50;;;17.70;99.90;;;;;;5064945;28;20037;-68
2023/08/18 07:30:31;;;;;;;5.90;2.25;;;17.80;99.90;;;;;;5065557;28;20410;-67
2023/08/18 07:32:57;;;;;;;8.80;2.00;;;17.80;99.90;;;;;;5057234;28;20044;-67
2023/08/18 07:35:23;;;;;;;4.00;2.20;;;17.80;99.90;;;;;;5049522;28;20047;-67
2023/08/18 07:37:50;;;;;;;3.47;2.00;;;17.80;99.90;;;;;;5057046;28;20044;-68
2023/08/18 07:40:16;;;;;;;2.22;1.77;;;17.90;99.90;;;;;;5063810;28;20056;-67
2023/08/18 07:42:42;;;;;;;3.50;1.75;;;17.90;99.90;;;;;;5038656;28;20497;-68
2023/08/18 07:45:08;;;;;;;6.18;2.55;;;18.00;99.90;;;;;;5059694;28;20040;-69
2023/08/18 07:47:38;;;;;;;4.03;2.25;;;18.00;99.90;;;;;;5041418;28;20470;-68
2023/08/18 07:50:07;;;;;;;4.15;2.25;;;18.00;99.90;;;;;;5065291;28;20044;-67
2023/08/18 07:52:33;;;;;;;3.60;2.20;;;18.00;99.90;;;;;;5051895;28;20049;-67
2023/08/18 07:55:01;;;;;;;4.85;1.83;;;18.00;99.90;;;;;;5036732;28;20553;-67
2023/08/18 07:57:26;;;;;;;7.50;2.25;;;18.00;99.90;;;;;;5019300;28;20048;-67
2023/08/18 07:59:52;;;;;;;4.68;1.88;;;18.10;99.90;;;;;;5045431;28;20048;-68
2023/08/18 08:02:18;;;;;;;4.35;1.95;;;18.10;99.90;;;;;;5063355;28;20075;-67
2023/08/18 08:04:44;;;;;;;8.45;2.30;;;18.10;99.90;;;;;;5050557;28;20544;-68
2023/08/18 08:07:09;;;;;;;4.90;1.88;;;18.20;99.90;;;;;;5066537;28;20044;-67
2023/08/18 08:09:35;;;;;;;3.90;1.85;;;18.10;99.90;;;;;;5044765;28;20037;-67
2023/08/18 08:12:02;;;;;;;8.23;3.42;;;18.20;99.90;;;;;;5058614;28;20390;-67
2023/08/18 08:14:27;;;;;;;4.50;2.05;;;18.30;99.90;;;;;;5056665;28;20754;-69
2023/08/18 08:16:53;;;;;;;5.32;1.90;;;18.20;99.90;;;;;;5052657;28;20048;-68
2023/08/18 08:19:19;;;;;;;4.18;1.80;;;18.30;99.90;;;;;;5066533;28;20048;-68
2023/08/18 08:21:44;;;;;;;6.03;2.10;;;18.30;99.90;;;;;;5066286;28;20529;-68
2023/08/18 08:24:10;;;;;;;3.75;1.80;;;18.30;99.90;;;;;;5061486;28;20044;-67
2023/08/18 08:26:36;;;;;;;7.30;1.90;;;18.40;99.90;;;;;;5068273;28;20044;-67
2023/08/18 08:29:02;;;;;;;4.90;1.65;;;18.40;99.90;;;;;;5058315;28;20672;-67
2023/08/18 08:31:28;;;;;;;1.85;1.40;;;18.50;99.90;;;;;;5068521;28;20044;-67
2023/08/18 08:33:53;;;;;;;2.25;1.60;;;18.50;99.90;;;;;;5035464;28;20552;-68
2023/08/18 08:36:19;;;;;;;4.10;1.70;;;18.40;99.90;;;;;;5025194;28;20044;-67
2023/08/18 08:38:45;;;;;;;5.82;2.20;;;18.50;99.90;;;;;;5058035;28;20355;-67
2023/08/18 08:41:10;;;;;;;2.80;1.52;;;18.50;99.90;;;;;;5053211;28;20040;-68
2023/08/18 08:43:36;;;;;;;4.07;1.90;;;18.60;99.90;;;;;;5051121;28;20044;-67
2023/08/18 08:46:03;;;;;;;5.13;2.10;;;18.70;99.90;;;;;;5064991;28;20040;-68
2023/08/18 08:48:34;;;;;;;10.07;2.20;;;18.70;99.90;;;;;;5067392;28;20362;-68
2023/08/18 08:51:04;;;;;;;6.13;1.95;;;18.80;99.90;;;;;;5046299;28;20052;-68
2023/08/18 08:53:35;;;;;;;7.20;2.17;;;18.90;99.90;;;;;;5067179;28;20039;-68
2023/08/18 08:56:02;;;;;;;4.57;1.73;;;18.90;99.90;;;;;;5050552;28;20041;-68
2023/08/18 08:58:31;;;;;;;3.90;2.08;;;18.90;99.90;;;;;;5062043;28;20043;-68
2023/08/18 09:01:00;;;;;;;5.63;1.90;;;18.90;99.90;;;;;;5065685;28;20051;-69
2023/08/18 09:03:28;;;;;;;3.25;1.77;;;19.00;99.90;;;;;;5065091;28;20041;-69
2023/08/18 09:05:55;;;;;;;6.63;2.30;;;19.00;99.90;;;;;;5049991;28;20036;-69
2023/08/18 09:08:21;;;;;;;3.58;1.77;;;19.10;99.90;;;;;;5058359;28;20048;-69
2023/08/18 09:10:48;;;;;;;3.88;1.88;;;19.20;99.90;;;;;;5066579;28;20147;-69
2023/08/18 09:13:14;;;;;;;6.60;1.80;;;19.20;99.90;;;;;;5066201;28;20478;-69
2023/08/18 09:15:44;;;;;;;3.05;1.70;;;19.20;99.90;;;;;;5026861;28;20044;-70
2023/08/18 09:18:14;;;;;;;7.03;1.98;;;19.20;99.90;;;;;;5057864;28;20445;-69
2023/08/18 09:20:44;;;;;;;2.90;1.58;;;19.20;99.90;;;;;;5068633;28;20046;-69
2023/08/18 09:23:11;;;;;;;9.40;1.58;;;19.30;99.90;;;;;;5044181;28;20119;-69
2023/08/18 09:25:37;;;;;;;2.58;1.88;;;19.40;99.90;;;;;;5056740;28;20163;-69
2023/08/18 09:28:04;;;;;;;4.07;1.98;;;19.50;99.90;;;;;;5038989;28;20040;-69
2023/08/18 09:30:34;;;;;;;3.55;2.30;;;19.50;99.90;;;;;;5061767;28;20116;-69
2023/08/18 09:33:04;;;;;;;3.00;1.50;;;19.60;99.90;;;;;;5040230;28;20082;-69
2023/08/18 09:35:34;;;;;;;2.83;1.77;;;19.60;99.90;;;;;;5043667;28;20060;-69
2023/08/18 09:38:01;;;;;;;3.33;1.58;;;19.70;99.90;;;;;;5061842;28;20103;-69
2023/08/18 09:40:28;;;;;;;4.78;1.70;;;19.70;99.90;;;;;;5042138;28;20094;-69
2023/08/18 09:42:54;;;;;;;5.05;1.75;;;19.80;99.90;;;;;;5019560;28;20045;-68
2023/08/18 09:45:26;;;;;;;1.85;1.65;;;19.90;99.90;;;;;;5025381;28;20564;-68
2023/08/18 09:47:55;;;;;;;3.78;1.33;;;19.90;99.90;;;;;;5023021;28;20057;-70
2023/08/18 09:50:25;;;;;;;5.35;1.52;;;20.00;99.90;;;;;;5047898;28;20055;-69
2023/08/18 09:52:54;;;;;;;2.30;1.52;;;20.00;99.90;;;;;;5020750;28;20048;-69
2023/08/18 09:55:37;;;;;;;2.00;1.48;;;20.00;99.90;;;;;;5057545;28;20617;-70
2023/08/18 09:58:08;;;;;;;5.50;1.60;;;20.00;99.90;;;;;;5055717;28;20545;-69
2023/08/18 10:00:36;;;;;;;3.17;1.35;;;20.10;99.90;;;;;;5047340;28;20041;-70
2023/08/18 10:03:04;;;;;;;4.55;1.40;;;20.30;99.90;;;;;;5054686;28;20124;-70
2023/08/18 10:05:31;;;;;;;2.75;1.70;;;20.40;99.90;;;;;;5024055;28;20037;-69
2023/08/18 10:07:56;;;;;;;2.45;1.42;;;20.50;99.90;;;;;;5034517;28;20499;-70
2023/08/18 10:10:23;;;;;;;3.53;1.40;;;20.60;99.90;;;;;;5064619;28;20048;-69
2023/08/18 10:12:50;;;;;;;3.30;1.60;;;20.70;99.90;;;;;;5030659;28;20043;-70
2023/08/18 10:15:18;;;;;;;3.78;1.45;;;20.70;99.90;;;;;;5045999;28;20036;-69
2023/08/18 10:17:44;;;;;;;2.70;1.50;;;20.90;99.90;;;;;;5041807;28;20131;-69
2023/08/18 10:20:13;;;;;;;4.00;1.70;;;21.00;99.90;;;;;;5025536;28;20123;-70
2023/08/18 10:22:42;;;;;;;2.63;1.63;;;21.20;99.90;;;;;;5059000;28;20033;-71
2023/08/18 10:25:08;;;;;;;7.72;1.50;;;21.20;99.90;;;;;;5037946;28;20494;-68
2023/08/18 10:27:40;;;;;;;9.60;2.10;;;21.20;99.90;;;;;;5052369;28;20080;-68
2023/08/18 10:30:23;;;;;;;6.30;1.70;;;21.20;99.90;;;;;;5044028;28;20062;-69
2023/08/18 10:32:51;;;;;;;4.30;1.73;;;21.30;99.90;;;;;;5054362;28;20049;-70
2023/08/18 10:35:26;;;;;;;5.95;1.60;;;21.30;99.90;;;;;;5031500;28;20513;-69
2023/08/18 10:37:58;;;;;;;3.60;2.08;;;21.40;99.90;;;;;;5046483;28;20058;-69
2023/08/18 10:40:25;;;;;;;4.13;1.50;;;21.30;99.90;;;;;;5046156;28;20486;-70
2023/08/18 10:42:58;;;;;;;2.75;1.70;;;21.30;99.90;;;;;;5066099;28;20040;-69
2023/08/18 10:45:26;;;;;;;4.97;1.98;;;21.30;99.90;;;;;;5047918;28;20118;-68
2023/08/18 10:47:54;;;;;;;2.45;1.77;;;21.20;99.90;;;;;;5066888;28;20055;-69
2023/08/18 10:50:20;;;;;;;4.57;1.92;;;21.20;99.90;;;;;;5061344;28;20099;-70
2023/08/18 10:52:45;;;;;;;6.03;1.80;;;21.20;99.90;;;;;;5056897;28;20431;-69
2023/08/18 10:55:11;;;;;;;2.67;1.65;;;21.30;99.90;;;;;;5052237;28;20036;-69
2023/08/18 10:57:37;;;;;;;4.20;1.98;;;21.30;99.90;;;;;;5047276;28;20141;-69
2023/08/18 11:00:11;;;;;;;5.93;2.00;;;21.40;99.90;;;;;;5045774;28;20029;-70
2023/08/18 11:02:38;;;;;;;4.43;1.95;;;21.50;99.90;;;;;;5019893;28;20800;-69
2023/08/18 11:05:05;;;;;;;5.88;2.55;;;21.60;99.90;;;;;;5060950;28;20406;-68
2023/08/18 11:07:32;;;;;;;5.32;2.00;;;21.70;99.90;;;;;;5014040;28;20051;-69
2023/08/18 11:09:58;;;;;;;2.92;1.90;;;21.90;99.90;;;;;;5056058;28;20044;-68
2023/08/18 11:12:23;;;;;;;2.80;2.38;;;22.00;99.90;;;;;;5050220;28;20042;-69
2023/08/18 11:14:49;;;;;;;4.32;2.58;;;22.00;99.90;;;;;;5037374;28;20087;-69
2023/08/18 11:17:15;;;;;;;5.88;2.75;;;22.10;99.90;;;;;;5018585;28;20041;-69
2023/08/18 11:19:42;;;;;;;3.83;2.30;;;22.20;99.90;;;;;;5031218;28;20037;-68
2023/08/18 11:22:08;;;;;;;3.17;2.33;;;22.20;99.90;;;;;;5028365;28;20084;-68
2023/08/18 11:24:37;;;;;;;4.90;2.63;;;22.20;99.90;;;;;;5029709;28;20491;-68
2023/08/18 11:27:03;;;;;;;4.63;3.13;;;22.20;99.90;;;;;;5054549;28;20403;-68
2023/08/18 11:29:29;;;;;;;3.20;2.90;;;22.30;99.90;;;;;;5036592;28;20140;-68
2023/08/18 11:31:54;;;;;;;3.85;2.63;;;22.30;99.90;;;;;;5026230;28;20431;-68
2023/08/18 11:34:21;;;;;;;5.88;2.80;;;22.30;99.90;;;;;;5021848;28;20033;-69
2023/08/18 11:36:47;;;;;;;7.13;3.47;;;22.30;99.90;;;;;;5033090;28;20080;-69
2023/08/18 11:39:12;;;;;;;5.93;3.03;;;22.30;99.90;;;;;;5028848;28;20916;-69
2023/08/18 11:41:41;;;;;;;3.63;3.08;;;22.50;99.90;;;;;;5030807;28;20052;-69
2023/08/18 11:44:08;;;;;;;4.90;2.95;;;22.50;99.90;;;;;;5015986;28;20120;-69
2023/08/18 11:46:38;;;;;;;4.40;2.97;;;22.60;99.90;;;;;;5013687;28;20120;-69
2023/08/18 11:49:20;;;;;;;6.40;3.60;;;22.60;99.90;;;;;;5040328;28;20403;-68
2023/08/18 11:52:00;;;;;;;4.07;3.28;;;22.60;99.90;;;;;;5032120;28;20037;-70
2023/08/18 11:54:30;;;;;;;3.25;2.95;;;22.60;99.90;;;;;;5019366;28;20045;-69
2023/08/18 11:56:57;;;;;;;6.38;3.30;;;22.70;99.90;;;;;;5032100;28;20559;-69
2023/08/18 11:59:23;;;;;;;4.32;3.28;;;22.80;99.90;;;;;;5021345;28;20128;-69
2023/08/18 12:01:57;;;;;;;3.58;3.17;;;22.70;99.90;;;;;;5036059;28;20043;-68
2023/08/18 12:04:30;;;;;;;6.80;3.40;;;22.60;99.90;;;;;;5012025;28;20058;-69
2023/08/18 12:06:57;;;;;;;6.25;2.78;;;22.60;99.90;;;;;;5036110;28;20093;-69
2023/08/18 12:09:23;;;;;;;5.05;3.03;;;22.70;99.90;;;;;;5008070;28;20045;-68
2023/08/18 12:11:50;;;;;;;7.25;3.20;;;22.70;99.90;;;;;;5039168;28;20042;-69
2023/08/18 12:14:16;;;;;;;5.15;3.38;;;22.90;99.90;;;;;;5045233;28;20055;-68
2023/08/18 12:16:43;;;;;;;3.10;2.75;;;23.00;99.90;;;;;;5042332;28;20577;-68
2023/08/18 12:19:12;;;;;;;3.17;2.90;;;23.10;99.90;;;;;;5038493;28;20049;-69
2023/08/18 12:21:38;;;;;;;4.07;3.15;;;23.10;99.90;;;;;;5023108;28;20502;-69
2023/08/18 12:24:07;;;;;;;3.47;3.05;;;23.20;99.90;;;;;;5029568;28;20045;-69
2023/08/18 12:26:34;;;;;;;3.10;2.75;;;23.30;99.90;;;;;;5044676;28;20044;-68
2023/08/18 12:29:03;;;;;;;4.93;3.15;;;23.50;99.90;;;;;;5055307;28;20068;-69
2023/08/18 12:31:30;;;;;;;3.42;3.10;;;23.60;99.90;;;;;;5044530;28;20490;-68
2023/08/18 12:33:56;;;;;;;4.32;3.05;;;23.70;99.90;;;;;;5039711;28;20048;-69
2023/08/18 12:36:22;;;;;;;4.55;3.42;;;23.50;99.90;;;;;;5065934;28;20072;-68
2023/08/18 12:38:48;;;;;;;6.10;3.08;;;23.40;99.90;;;;;;5067140;28;20071;-68
2023/08/18 12:41:14;;;;;;;3.88;3.33;;;23.40;99.90;;;;;;5066344;28;20470;-68
2023/08/18 12:43:41;;;;;;;3.22;3.03;;;23.40;99.90;;;;;;5051877;28;20075;-68
2023/08/18 12:46:08;;;;;;;3.72;3.40;;;23.50;99.90;;;;;;5062214;28;20049;-68